Time;durP1;ratioP1;P1;durP2;ratioP2;P2;SDS_P1;SDS_P2;PMS_P1;PMS_P2;Temp;Humidity;BMP_temperature;BMP_pressure;BME280_temperature;BME280_humidity;BME280_pressure;Samples;Min_cycle;Max_cycle;Signal;HPM_P1;HPM_P2
2021/01/28 00:01:11;;;;;;;4.85;3.63;;;20.90;39.00;;;;;;4812058;29;20044;-73
2021/01/28 00:03:37;;;;;;;6.07;3.83;;;20.90;39.00;;;;;;4810201;29;20515;-74
2021/01/28 00:06:03;;;;;;;5.18;3.58;;;20.90;39.00;;;;;;4836275;29;20026;-74
2021/01/28 00:08:29;;;;;;;5.13;3.85;;;20.90;39.10;;;;;;4810255;29;20125;-73
2021/01/28 00:10:55;;;;;;;4.90;2.80;;;20.90;39.10;;;;;;4810468;29;20046;-73
2021/01/28 00:13:26;;;;;;;6.15;4.05;;;20.80;39.10;;;;;;4809372;29;20117;-73
2021/01/28 00:15:52;;;;;;;6.43;4.07;;;20.80;39.10;;;;;;4815194;29;20473;-74
2021/01/28 00:18:18;;;;;;;4.45;3.58;;;20.80;39.10;;;;;;4832030;29;20038;-72
2021/01/28 00:20:45;;;;;;;5.40;3.97;;;20.80;39.10;;;;;;4808903;29;20062;-72
2021/01/28 00:23:11;;;;;;;6.03;4.13;;;20.80;39.20;;;;;;4831701;29;20037;-72
2021/01/28 00:25:37;;;;;;;6.90;4.05;;;20.80;39.10;;;;;;4795989;29;20031;-73
2021/01/28 00:28:04;;;;;;;6.22;4.03;;;20.80;39.80;;;;;;4794423;29;20132;-72
2021/01/28 00:30:40;;;;;;;14.73;3.92;;;20.80;39.10;;;;;;4809071;29;20046;-72
2021/01/28 00:33:06;;;;;;;6.55;3.97;;;20.80;39.10;;;;;;4797073;29;20125;-73
2021/01/28 00:35:42;;;;;;;6.43;3.80;;;20.80;39.10;;;;;;4804682;29;20069;-73
2021/01/28 00:38:11;;;;;;;3.90;2.97;;;20.80;39.10;;;;;;4793164;29;20118;-74
2021/01/28 00:40:37;;;;;;;4.20;3.42;;;20.80;39.10;;;;;;4808243;29;20030;-74
2021/01/28 00:43:03;;;;;;;4.63;2.83;;;20.80;39.20;;;;;;4822123;29;20388;-74
2021/01/28 00:45:30;;;;;;;4.18;3.30;;;20.80;39.20;;;;;;4811441;29;20030;-75
2021/01/28 00:48:02;;;;;;;4.97;3.10;;;20.80;39.10;;;;;;4824708;29;20037;-74
2021/01/28 00:50:29;;;;;;;4.03;2.83;;;20.80;39.10;;;;;;4794264;29;20515;-74
2021/01/28 00:52:54;;;;;;;5.45;3.05;;;20.70;39.20;;;;;;4809097;29;20036;-74
2021/01/28 00:55:20;;;;;;;3.90;2.83;;;20.70;39.10;;;;;;4828367;29;20026;-73
2021/01/28 00:57:45;;;;;;;3.97;3.10;;;20.70;39.20;;;;;;4797801;29;20107;-73
2021/01/28 01:00:17;;;;;;;4.55;2.85;;;20.70;39.20;;;;;;4794066;29;20038;-72
2021/01/28 01:02:43;;;;;;;3.80;2.95;;;20.70;39.20;;;;;;4824478;29;20080;-73
2021/01/28 01:05:11;;;;;;;3.63;2.70;;;20.70;39.20;;;;;;4824735;29;20030;-73
2021/01/28 01:07:37;;;;;;;6.32;3.20;;;20.70;39.20;;;;;;4796666;29;20034;-73
2021/01/28 01:10:04;;;;;;;3.17;2.80;;;20.70;39.30;;;;;;4827482;29;20127;-73
2021/01/28 01:12:42;;;;;;;3.28;2.42;;;20.60;39.20;;;;;;4814382;29;20100;-73
2021/01/28 01:15:08;;;;;;;3.97;3.03;;;20.60;39.30;;;;;;4824501;29;20026;-73
2021/01/28 01:17:34;;;;;;;2.80;2.35;;;20.60;39.30;;;;;;4808421;29;20026;-73
2021/01/28 01:19:59;;;;;;;2.45;2.05;;;20.60;39.30;;;;;;4807924;29;20443;-72
2021/01/28 01:22:25;;;;;;;2.88;2.50;;;20.60;39.30;;;;;;4808599;29;20038;-73
2021/01/28 01:24:50;;;;;;;4.40;2.50;;;20.60;39.30;;;;;;4828892;29;20030;-73
2021/01/28 01:27:16;;;;;;;2.92;2.55;;;20.60;39.30;;;;;;4825522;29;20053;-73
2021/01/28 01:29:42;;;;;;;2.72;2.35;;;20.60;39.30;;;;;;4808445;29;20041;-72
2021/01/28 01:32:07;;;;;;;3.78;2.55;;;20.60;39.40;;;;;;4836828;29;20114;-73
2021/01/28 01:34:33;;;;;;;3.05;2.50;;;20.50;39.40;;;;;;4830468;29;20023;-73
2021/01/28 01:36:58;;;;;;;3.30;2.65;;;20.50;39.40;;;;;;4798623;29;20133;-73
2021/01/28 01:39:24;;;;;;;3.42;2.28;;;20.50;39.40;;;;;;4824302;29;20030;-75
2021/01/28 01:41:49;;;;;;;3.00;2.58;;;20.50;39.40;;;;;;4826191;29;20042;-74
2021/01/28 01:44:15;;;;;;;2.58;2.30;;;20.50;39.50;;;;;;4824567;29;20026;-74
2021/01/28 01:46:41;;;;;;;2.65;2.45;;;20.50;39.50;;;;;;4808346;29;20136;-74
2021/01/28 01:49:09;;;;;;;2.80;2.30;;;20.50;39.50;;;;;;4827243;29;20532;-74
2021/01/28 01:51:42;;;;;;;3.28;2.55;;;20.40;39.50;;;;;;4816894;29;20108;-74
2021/01/28 01:54:24;;;;;;;2.50;2.28;;;20.50;39.50;;;;;;4802341;29;20415;-75
2021/01/28 01:57:04;;;;;;;4.20;2.63;;;20.50;39.50;;;;;;4809387;29;20045;-75
2021/01/28 01:59:51;;;;;;;4.82;2.90;;;20.40;39.50;;;;;;4792811;29;20496;-74
2021/01/28 02:02:18;;;;;;;4.07;2.70;;;20.40;39.50;;;;;;4806384;29;20046;-74
2021/01/28 02:04:44;;;;;;;3.67;2.45;;;20.50;39.50;;;;;;4793555;29;20541;-74
2021/01/28 02:07:12;;;;;;;3.63;2.95;;;20.50;39.50;;;;;;4810481;29;20043;-73
2021/01/28 02:09:37;;;;;;;4.00;2.63;;;20.50;39.50;;;;;;4793656;29;20041;-75
2021/01/28 02:12:03;;;;;;;3.67;2.55;;;20.50;39.50;;;;;;4807325;29;20046;-74
2021/01/28 02:14:29;;;;;;;4.55;2.63;;;20.40;39.50;;;;;;4831724;29;20503;-75
2021/01/28 02:17:01;;;;;;;2.90;2.60;;;20.50;39.50;;;;;;4819042;29;20083;-74
2021/01/28 02:19:48;;;;;;;4.03;2.75;;;20.40;39.50;;;;;;4816870;29;20522;-74
2021/01/28 02:22:15;;;;;;;3.40;2.08;;;20.40;39.60;;;;;;4824479;29;20058;-74
2021/01/28 02:24:52;;;;;;;4.78;2.65;;;20.40;39.50;;;;;;4792290;29;20065;-74
2021/01/28 02:27:18;;;;;;;3.63;2.33;;;20.40;39.50;;;;;;4793188;29;20063;-74
2021/01/28 02:29:45;;;;;;;3.20;2.40;;;20.40;39.50;;;;;;4807350;29;20034;-74
2021/01/28 02:32:11;;;;;;;3.70;2.47;;;20.40;39.60;;;;;;4792307;29;20496;-74
2021/01/28 02:34:37;;;;;;;9.88;2.05;;;20.40;39.60;;;;;;4792138;29;20034;-74
2021/01/28 02:37:16;;;;;;;2.83;1.90;;;20.40;39.60;;;;;;4792468;29;20036;-74
2021/01/28 02:39:42;;;;;;;4.40;1.85;;;20.40;39.70;;;;;;4793117;29;20407;-74
2021/01/28 02:42:28;;;;;;;5.65;2.25;;;20.40;39.70;;;;;;4791362;29;20046;-75
2021/01/28 02:44:53;;;;;;;3.58;2.30;;;20.30;39.60;;;;;;4822971;29;20434;-75
2021/01/28 02:47:19;;;;;;;4.95;2.65;;;20.40;39.70;;;;;;4806787;29;20052;-75
2021/01/28 02:49:44;;;;;;;2.38;0.50;;;20.30;39.60;;;;;;4806619;29;20035;-76
2021/01/28 02:52:10;;;;;;;3.40;2.60;;;20.30;39.60;;;;;;4823729;29;20095;-75
2021/01/28 02:54:40;;;;;;;2.78;2.30;;;20.30;39.70;;;;;;4817196;29;20097;-75
2021/01/28 02:57:06;;;;;;;4.30;2.10;;;20.30;39.80;;;;;;4823070;29;20030;-75
2021/01/28 02:59:31;;;;;;;2.80;2.33;;;20.30;39.80;;;;;;4791725;29;20092;-74
2021/01/28 03:02:08;;;;;;;3.97;2.53;;;20.30;39.80;;;;;;4818290;29;20045;-73
2021/01/28 03:04:34;;;;;;;2.72;1.90;;;20.30;39.80;;;;;;4816390;29;20087;-74
2021/01/28 03:06:59;;;;;;;3.80;2.17;;;20.30;39.80;;;;;;4793122;29;20042;-73
2021/01/28 03:09:25;;;;;;;3.95;2.13;;;20.30;39.90;;;;;;4822852;29;20035;-73
2021/01/28 03:11:51;;;;;;;2.20;2.00;;;20.30;39.90;;;;;;4806864;29;20105;-74
2021/01/28 03:14:16;;;;;;;3.03;2.30;;;20.20;39.80;;;;;;4817513;29;20034;-73
2021/01/28 03:16:42;;;;;;;2.75;2.40;;;20.20;39.90;;;;;;4824499;29;20514;-73
2021/01/28 03:19:07;;;;;;;4.15;2.25;;;20.20;39.90;;;;;;4825724;29;20114;-73
2021/01/28 03:21:33;;;;;;;2.55;2.28;;;20.20;40.00;;;;;;4809070;29;20435;-73
2021/01/28 03:23:59;;;;;;;3.65;2.38;;;20.20;40.00;;;;;;4823648;29;20031;-73
2021/01/28 03:26:24;;;;;;;3.47;2.28;;;20.20;40.10;;;;;;4807150;29;20053;-73
2021/01/28 03:28:56;;;;;;;2.63;2.30;;;20.20;40.00;;;;;;4791962;29;20042;-73
2021/01/28 03:31:21;;;;;;;2.00;1.80;;;20.20;40.00;;;;;;4807625;29;20065;-73
2021/01/28 03:33:47;;;;;;;4.18;2.22;;;20.20;40.10;;;;;;4792638;29;20054;-73
2021/01/28 03:36:22;;;;;;;2.83;2.00;;;20.20;40.10;;;;;;4805717;29;20453;-73
2021/01/28 03:38:47;;;;;;;2.30;1.63;;;20.20;40.10;;;;;;4823725;29;20042;-73
2021/01/28 03:41:13;;;;;;;2.95;2.00;;;20.20;40.10;;;;;;4826341;29;20042;-73
2021/01/28 03:43:39;;;;;;;1.70;1.60;;;20.20;40.10;;;;;;4831275;29;20498;-73
2021/01/28 03:46:04;;;;;;;2.72;2.00;;;20.10;40.10;;;;;;4813364;29;20175;-73
2021/01/28 03:48:30;;;;;;;2.55;2.35;;;20.10;40.10;;;;;;4826216;29;20030;-73
2021/01/28 03:50:56;;;;;;;2.00;1.75;;;20.10;40.10;;;;;;4825981;29;20039;-73
2021/01/28 03:53:27;;;;;;;2.20;1.88;;;20.10;40.10;;;;;;4809976;29;20054;-73
2021/01/28 03:55:53;;;;;;;2.50;1.92;;;20.10;40.20;;;;;;4833957;29;20041;-73
2021/01/28 03:58:21;;;;;;;2.30;1.88;;;20.10;40.10;;;;;;4825904;29;20038;-73
2021/01/28 04:00:53;;;;;;;2.38;1.42;;;20.10;40.10;;;;;;4825712;29;20042;-73
2021/01/28 04:03:19;;;;;;;2.20;1.83;;;20.10;40.10;;;;;;4828654;29;20030;-73
2021/01/28 04:05:44;;;;;;;2.33;1.27;;;20.10;40.20;;;;;;4830181;29;20148;-72
2021/01/28 04:08:10;;;;;;;3.67;1.50;;;20.10;40.20;;;;;;4814793;29;20113;-72
2021/01/28 04:10:37;;;;;;;1.75;1.30;;;20.10;40.30;;;;;;4826715;29;20031;-72
2021/01/28 04:13:03;;;;;;;2.33;1.50;;;20.10;40.30;;;;;;4795631;29;20026;-72
2021/01/28 04:15:28;;;;;;;1.73;1.17;;;20.10;40.30;;;;;;4794733;29;20564;-73
2021/01/28 04:17:54;;;;;;;1.33;1.23;;;20.00;40.20;;;;;;4825733;29;20033;-72
2021/01/28 04:20:28;;;;;;;2.03;1.50;;;20.00;40.20;;;;;;4826664;29;20058;-74
2021/01/28 04:22:54;;;;;;;1.30;1.23;;;20.00;40.30;;;;;;4788764;29;20042;-74
2021/01/28 04:25:20;;;;;;;1.35;1.25;;;20.00;40.30;;;;;;4792318;29;20050;-74
2021/01/28 04:27:46;;;;;;;1.70;1.33;;;20.00;40.30;;;;;;4794298;29;20469;-74
2021/01/28 04:30:17;;;;;;;3.30;1.52;;;20.10;40.30;;;;;;4794454;29;20118;-75
2021/01/28 04:32:48;;;;;;;1.92;1.65;;;20.10;40.30;;;;;;4795493;29;20031;-75
2021/01/28 04:35:13;;;;;;;2.25;1.50;;;20.10;40.30;;;;;;4825169;29;20031;-74
2021/01/28 04:37:39;;;;;;;1.33;1.23;;;20.10;40.30;;;;;;4825049;29;20406;-73
2021/01/28 04:40:08;;;;;;;1.85;1.38;;;20.10;40.30;;;;;;4816541;29;20034;-73
2021/01/28 04:42:45;;;;;;;2.03;1.48;;;20.10;40.30;;;;;;4808856;29;20050;-73
2021/01/28 04:45:12;;;;;;;1.48;1.30;;;20.10;40.30;;;;;;4824236;29;20030;-73
2021/01/28 04:47:55;;;;;;;1.80;1.27;;;20.10;40.30;;;;;;4813478;29;20181;-73
2021/01/28 04:50:24;;;;;;;1.40;1.30;;;20.00;40.20;;;;;;4813841;29;20026;-73
2021/01/28 04:52:50;;;;;;;2.85;1.25;;;20.00;40.20;;;;;;4794464;29;20046;-73
2021/01/28 04:55:15;;;;;;;2.45;1.50;;;20.10;40.30;;;;;;4793183;29;20099;-73
2021/01/28 04:57:42;;;;;;;2.22;1.30;;;20.00;40.30;;;;;;4802274;29;20064;-73
2021/01/28 05:00:09;;;;;;;2.20;1.20;;;20.00;40.30;;;;;;4809584;29;20396;-73
2021/01/28 05:02:34;;;;;;;0.08;0.08;;;20.00;40.30;;;;;;4819778;29;20491;-72
2021/01/28 05:05:04;;;;;;;0.20;0.20;;;20.00;40.40;;;;;;4793913;29;20045;-72
2021/01/28 05:07:34;;;;;;;0.32;0.15;;;20.00;40.40;;;;;;4809425;29;20030;-73
2021/01/28 05:10:05;;;;;;;0.73;0.22;;;20.10;40.40;;;;;;4809752;29;20507;-73
2021/01/28 05:12:31;;;;;;;0.10;0.10;;;20.20;40.30;;;;;;4824366;29;20026;-73
2021/01/28 05:15:10;;;;;;;0.85;0.13;;;20.30;40.20;;;;;;4793660;29;20041;-73
2021/01/28 05:17:35;;;;;;;0.15;0.15;;;20.40;40.10;;;;;;4808936;29;20105;-74
2021/01/28 05:20:01;;;;;;;0.52;0.30;;;20.50;40.00;;;;;;4812214;29;20547;-73
2021/01/28 05:22:32;;;;;;;0.10;0.10;;;20.60;39.80;;;;;;4824439;29;20038;-73
2021/01/28 05:25:00;;;;;;;0.30;0.17;;;20.70;39.60;;;;;;4785893;29;20476;-74
2021/01/28 05:27:32;;;;;;;0.28;0.20;;;20.80;39.50;;;;;;4826611;29;20091;-74
2021/01/28 05:29:59;;;;;;;0.47;0.30;;;20.80;39.30;;;;;;4808049;29;20133;-73
2021/01/28 05:32:41;;;;;;;0.68;0.30;;;20.90;39.20;;;;;;4823570;29;20026;-73
2021/01/28 05:35:26;;;;;;;0.20;0.10;;;21.00;39.00;;;;;;4808500;29;20038;-73
2021/01/28 05:38:07;;;;;;;0.20;0.20;;;21.20;38.80;;;;;;4808127;29;20039;-73
2021/01/28 05:40:53;;;;;;;0.10;0.10;;;21.30;38.60;;;;;;4798802;29;20026;-73
2021/01/28 05:43:29;;;;;;;0.38;0.15;;;21.40;38.40;;;;;;4808425;29;20038;-73
2021/01/28 05:46:10;;;;;;;;;;;21.50;38.30;;;;;;4808964;29;20042;-73
2021/01/28 05:48:38;;;;;;;0.40;0.40;;;21.60;38.10;;;;;;4824233;29;20277;-73
2021/01/28 05:51:12;;;;;;;0.30;0.30;;;21.60;38.00;;;;;;4823562;29;20042;-73
2021/01/28 05:53:37;;;;;;;1.02;0.20;;;21.70;37.90;;;;;;4825375;29;20030;-73
2021/01/28 05:56:07;;;;;;;1.75;0.20;;;21.80;37.80;;;;;;4808077;29;20037;-73
2021/01/28 05:58:56;;;;;;;0.10;0.10;;;21.80;37.70;;;;;;4807600;29;20560;-73
2021/01/28 06:01:31;;;;;;;0.20;0.20;;;21.80;37.50;;;;;;4791743;29;20089;-73
2021/01/28 06:04:21;;;;;;;0.33;0.23;;;22.00;37.50;;;;;;4824510;29;20034;-73
2021/01/28 06:07:04;;;;;;;0.20;0.20;;;22.00;37.40;;;;;;4820964;29;20022;-73
2021/01/28 06:09:41;;;;;;;0.20;0.13;;;22.10;37.30;;;;;;4828734;29;20495;-74
2021/01/28 06:12:46;;;;;;;0.55;0.28;;;22.10;37.20;;;;;;4827701;29;20049;-73
2021/01/28 06:15:14;;;;;;;0.22;0.20;;;22.10;37.20;;;;;;4824012;29;20054;-74
2021/01/28 06:18:05;;;;;;;0.00;0.00;;;22.00;37.30;;;;;;4826634;29;20026;-74
2021/01/28 06:20:35;;;;;;;0.28;0.10;;;22.10;37.20;;;;;;4833654;29;20089;-75
2021/01/28 06:23:38;;;;;;;0.10;0.10;;;22.10;37.20;;;;;;4807458;29;20034;-76
2021/01/28 06:26:26;;;;;;;0.10;0.10;;;22.10;37.20;;;;;;4818926;29;20038;-75
2021/01/28 06:29:16;;;;;;;0.00;0.00;;;22.10;37.20;;;;;;4822970;29;20062;-74
2021/01/28 06:35:21;;;;;;;0.63;0.30;;;22.20;37.20;;;;;;4819600;29;20037;-74
2021/01/28 06:38:08;;;;;;;0.00;0.00;;;22.20;37.20;;;;;;4823643;29;20114;-74
2021/01/28 06:40:34;;;;;;;0.25;0.05;;;22.20;37.20;;;;;;4817256;29;20055;-74
2021/01/28 06:43:05;;;;;;;0.13;0.10;;;22.20;37.20;;;;;;4816303;29;20042;-74
2021/01/28 06:45:32;;;;;;;2.40;0.20;;;22.20;37.20;;;;;;4803206;29;20042;-74
2021/01/28 06:47:58;;;;;;;0.40;0.15;;;22.20;37.10;;;;;;4795223;29;20038;-74
2021/01/28 06:50:55;;;;;;;2.03;0.20;;;22.30;37.10;;;;;;4822905;29;20034;-74
2021/01/28 06:53:25;;;;;;;0.03;0.03;;;22.30;37.10;;;;;;4820722;29;20418;-74
2021/01/28 06:56:04;;;;;;;0.68;0.20;;;22.30;37.10;;;;;;4792756;29;20026;-74
2021/01/28 06:58:48;;;;;;;0.65;0.32;;;22.30;37.50;;;;;;4812400;29;20036;-74
2021/01/28 07:01:25;;;;;;;0.43;0.43;;;22.40;37.30;;;;;;4821316;29;20034;-72
2021/01/28 07:03:56;;;;;;;0.00;0.00;;;22.40;37.20;;;;;;4806957;29;20026;-73
2021/01/28 07:06:46;;;;;;;0.10;0.10;;;22.40;37.20;;;;;;4807273;29;20110;-72
2021/01/28 07:09:57;;;;;;;0.77;0.25;;;22.40;37.20;;;;;;4768355;29;20042;-74
2021/01/28 07:12:29;;;;;;;0.50;0.22;;;22.40;37.20;;;;;;4819176;29;20050;-74
2021/01/28 07:14:54;;;;;;;0.00;0.00;;;22.40;37.30;;;;;;4792001;29;20038;-74
2021/01/28 07:17:31;;;;;;;5.22;0.10;;;22.40;37.30;;;;;;4792101;29;20047;-74
2021/01/28 07:20:02;;;;;;;0.15;0.15;;;22.40;37.30;;;;;;4810823;29;20060;-73
2021/01/28 07:22:38;;;;;;;0.30;0.10;;;22.40;37.30;;;;;;4795709;29;20064;-73
2021/01/28 07:25:32;;;;;;;0.10;0.10;;;22.40;37.40;;;;;;4780275;29;20419;-73
2021/01/28 07:28:02;;;;;;;0.10;0.10;;;22.40;37.40;;;;;;4798135;29;20049;-73
2021/01/28 07:30:39;;;;;;;0.45;0.10;;;22.40;37.50;;;;;;4826404;29;20126;-74
2021/01/28 07:33:05;;;;;;;0.15;0.10;;;22.30;37.60;;;;;;4827519;29;20034;-72
2021/01/28 07:35:41;;;;;;;0.22;0.00;;;22.30;37.70;;;;;;4808846;29;20054;-73
2021/01/28 07:38:32;;;;;;;0.20;0.20;;;22.30;37.80;;;;;;4814001;29;20045;-73
2021/01/28 07:41:09;;;;;;;0.30;0.13;;;22.30;37.90;;;;;;4825323;29;20042;-74
2021/01/28 07:43:40;;;;;;;0.10;0.10;;;22.30;37.90;;;;;;4825141;29;20058;-74
2021/01/28 07:46:27;;;;;;;0.20;0.10;;;22.20;38.00;;;;;;4806498;29;20527;-74
2021/01/28 07:49:10;;;;;;;4.47;0.25;;;22.20;38.00;;;;;;4825716;29;20423;-74
2021/01/28 07:51:37;;;;;;;0.00;0.00;;;22.30;38.10;;;;;;4818390;29;20058;-74
2021/01/28 07:54:04;;;;;;;0.32;0.15;;;22.30;38.10;;;;;;4828354;29;20031;-74
2021/01/28 07:56:50;;;;;;;1.58;0.35;;;22.30;38.20;;;;;;4825971;29;20115;-74
2021/01/28 07:59:35;;;;;;;1.65;0.20;;;22.30;38.20;;;;;;4794419;29;20129;-75
2021/01/28 08:02:23;;;;;;;0.20;0.20;;;22.40;38.30;;;;;;4794628;29;20054;-74
2021/01/28 08:04:53;;;;;;;0.55;0.20;;;22.40;38.30;;;;;;4808732;29;20030;-74
2021/01/28 08:07:29;;;;;;;0.10;0.10;;;22.40;38.80;;;;;;4825977;29;20038;-74
2021/01/28 08:09:57;;;;;;;0.30;0.10;;;22.40;38.20;;;;;;4806156;29;20042;-74
2021/01/28 08:12:45;;;;;;;0.38;0.20;;;22.40;38.20;;;;;;4825013;29;20053;-74
2021/01/28 08:15:17;;;;;;;0.30;0.20;;;22.40;38.20;;;;;;4810142;29;20117;-73
2021/01/28 08:17:43;;;;;;;0.22;0.13;;;22.30;38.20;;;;;;4809063;29;20026;-72
2021/01/28 08:20:13;;;;;;;0.22;0.20;;;22.30;38.50;;;;;;4807177;29;20073;-73
2021/01/28 08:22:58;;;;;;;0.20;0.20;;;22.30;38.60;;;;;;4823618;29;20040;-74
2021/01/28 08:25:38;;;;;;;0.10;0.10;;;22.20;38.80;;;;;;4809657;29;20053;-75
2021/01/28 08:28:13;;;;;;;0.30;0.10;;;22.20;38.90;;;;;;4807435;29;20105;-74
2021/01/28 08:30:39;;;;;;;0.00;0.00;;;22.20;39.00;;;;;;4817972;29;20026;-74
2021/01/28 08:33:05;;;;;;;0.10;0.00;;;22.10;39.20;;;;;;4794123;29;20038;-74
2021/01/28 08:35:38;;;;;;;0.10;0.10;;;22.20;39.00;;;;;;4793799;29;20034;-74
2021/01/28 08:38:06;;;;;;;1.45;0.30;;;22.20;39.00;;;;;;4808911;29;20031;-74
2021/01/28 08:40:31;;;;;;;0.03;0.03;;;22.20;39.20;;;;;;4793693;29;20046;-74
2021/01/28 08:43:18;;;;;;;0.63;0.10;;;22.20;39.30;;;;;;4808859;29;20507;-74
2021/01/28 08:45:44;;;;;;;0.25;0.10;;;22.10;40.00;;;;;;4791635;29;20034;-74
2021/01/28 08:48:23;;;;;;;0.10;0.10;;;22.10;39.50;;;;;;4793697;29;20033;-74
2021/01/28 08:50:49;;;;;;;0.22;0.10;;;22.10;39.60;;;;;;4806036;29;20081;-74
2021/01/28 08:53:17;;;;;;;0.25;0.20;;;22.10;39.70;;;;;;4822788;29;20070;-74
2021/01/28 08:55:44;;;;;;;7.68;0.20;;;22.10;39.80;;;;;;4808473;29;20019;-74
2021/01/28 08:58:31;;;;;;;0.10;0.10;;;22.10;39.70;;;;;;4775259;29;20031;-74
2021/01/28 09:00:59;;;;;;;0.75;0.20;;;22.10;39.80;;;;;;4817624;29;20030;-74
2021/01/28 09:03:27;;;;;;;0.70;0.10;;;22.10;39.80;;;;;;4806862;29;20062;-74
2021/01/28 09:05:53;;;;;;;0.00;0.00;;;22.10;39.80;;;;;;4792931;29;20042;-74
2021/01/28 09:08:37;;;;;;;0.10;0.10;;;22.00;39.80;;;;;;4786514;29;20588;-74
2021/01/28 09:11:29;;;;;;;0.10;0.10;;;22.00;40.20;;;;;;4794001;29;20042;-74
2021/01/28 09:14:28;;;;;;;0.10;0.10;;;22.00;40.30;;;;;;4819239;29;20160;-74
2021/01/28 09:17:05;;;;;;;2.13;0.17;;;22.00;40.20;;;;;;4807010;29;20041;-74
2021/01/28 09:19:32;;;;;;;0.32;0.32;;;22.00;40.10;;;;;;4788789;29;20023;-74
2021/01/28 09:22:03;;;;;;;0.10;0.10;;;22.00;40.10;;;;;;4805840;29;20058;-74
2021/01/28 09:24:43;;;;;;;0.08;0.00;;;21.90;40.80;;;;;;4804975;29;20499;-74
2021/01/28 09:27:16;;;;;;;0.10;0.10;;;22.00;40.30;;;;;;4792657;29;20480;-74
2021/01/28 09:29:42;;;;;;;0.32;0.10;;;22.00;40.20;;;;;;4815167;29;20057;-77
2021/01/28 09:32:11;;;;;;;0.20;0.10;;;22.00;40.30;;;;;;4790361;29;20046;-77
2021/01/28 09:34:37;;;;;;;0.00;0.00;;;21.90;40.40;;;;;;4803456;29;20073;-77
2021/01/28 09:37:06;;;;;;;0.20;0.00;;;21.90;40.60;;;;;;4805151;29;20077;-77
2021/01/28 09:39:38;;;;;;;0.00;0.00;;;21.90;40.60;;;;;;4805833;29;20116;-76
2021/01/28 09:42:25;;;;;;;0.00;0.00;;;21.90;40.60;;;;;;4822965;29;20110;-76
2021/01/28 09:44:51;;;;;;;0.10;0.10;;;21.90;40.60;;;;;;4819002;29;20045;-76
2021/01/28 09:47:19;;;;;;;0.85;0.00;;;21.90;40.50;;;;;;4790549;29;20511;-75
2021/01/28 09:49:50;;;;;;;0.50;0.17;;;22.00;40.60;;;;;;4789907;29;20050;-77
2021/01/28 09:52:41;;;;;;;0.38;0.20;;;22.00;40.60;;;;;;4791604;29;20045;-76
2021/01/28 09:55:12;;;;;;;0.10;0.10;;;22.00;40.50;;;;;;4806036;29;20038;-77
2021/01/28 09:57:37;;;;;;;0.30;0.20;;;22.00;40.60;;;;;;4819405;29;20121;-76
2021/01/28 10:00:08;;;;;;;0.10;0.10;;;22.00;40.60;;;;;;4806920;29;20507;-74
2021/01/28 10:02:48;;;;;;;0.50;0.10;;;22.00;40.70;;;;;;4806478;29;20032;-75
2021/01/28 10:05:18;;;;;;;0.13;0.10;;;21.90;40.90;;;;;;4790648;29;20529;-75
2021/01/28 10:07:47;;;;;;;0.10;0.10;;;21.90;41.20;;;;;;4792330;29;20460;-75
2021/01/28 10:10:13;;;;;;;0.43;0.30;;;21.90;41.20;;;;;;4792950;29;20034;-73
2021/01/28 10:12:39;;;;;;;0.10;0.10;;;21.90;41.30;;;;;;4806411;29;20514;-75
2021/01/28 10:15:05;;;;;;;0.10;0.10;;;21.90;41.30;;;;;;4805120;29;20042;-74
2021/01/28 10:17:31;;;;;;;0.20;0.20;;;21.90;41.30;;;;;;4801682;29;20033;-74
2021/01/28 10:19:57;;;;;;;2.20;0.25;;;21.90;41.30;;;;;;4818185;29;20039;-74
2021/01/28 10:22:23;;;;;;;0.20;0.20;;;21.90;41.30;;;;;;4804468;29;20507;-74
2021/01/28 10:24:49;;;;;;;0.20;0.10;;;21.90;41.40;;;;;;4799960;29;20058;-74
2021/01/28 10:27:15;;;;;;;0.20;0.20;;;21.90;41.40;;;;;;4806525;29;20100;-72
2021/01/28 10:29:41;;;;;;;0.40;0.20;;;22.00;41.30;;;;;;4805418;29;20107;-73
2021/01/28 10:32:07;;;;;;;0.10;0.10;;;21.90;41.30;;;;;;4800671;29;20121;-73
2021/01/28 10:34:33;;;;;;;0.10;0.10;;;21.90;41.20;;;;;;4803440;29;20027;-72
2021/01/28 10:36:59;;;;;;;0.10;0.10;;;21.90;41.30;;;;;;4819354;29;20026;-72
2021/01/28 10:39:25;;;;;;;0.10;0.10;;;21.90;41.60;;;;;;4821640;29;20083;-73
2021/01/28 10:41:50;;;;;;;0.15;0.00;;;21.90;41.40;;;;;;4806554;29;20542;-73
2021/01/28 10:44:16;;;;;;;0.15;0.15;;;22.00;41.40;;;;;;4805525;29;20061;-73
2021/01/28 10:46:42;;;;;;;0.43;0.30;;;22.00;41.50;;;;;;4804376;29;20043;-72
2021/01/28 10:49:09;;;;;;;0.20;0.10;;;21.90;41.50;;;;;;4802698;29;20845;-73
2021/01/28 10:51:34;;;;;;;0.38;0.00;;;21.90;41.60;;;;;;4808642;29;20026;-72
2021/01/28 10:54:00;;;;;;;0.30;0.10;;;22.00;41.50;;;;;;4803547;29;20114;-72
2021/01/28 10:56:25;;;;;;;0.22;0.20;;;22.00;41.60;;;;;;4822061;29;20035;-73
2021/01/28 10:58:52;;;;;;;0.20;0.20;;;22.00;41.50;;;;;;4821354;29;20568;-73
2021/01/28 11:01:18;;;;;;;0.73;0.20;;;22.00;41.50;;;;;;4822530;29;20023;-73
2021/01/28 11:03:44;;;;;;;0.10;0.10;;;22.00;41.70;;;;;;4822125;29;20080;-73
2021/01/28 11:06:10;;;;;;;3.40;0.20;;;22.00;41.70;;;;;;4784616;29;20058;-73
2021/01/28 11:08:36;;;;;;;0.82;0.10;;;22.00;41.70;;;;;;4821118;29;20480;-73
2021/01/28 11:11:02;;;;;;;0.25;0.15;;;22.00;41.70;;;;;;4805373;29;20053;-73
2021/01/28 11:13:27;;;;;;;0.22;0.10;;;22.00;41.70;;;;;;4784426;29;20081;-73
2021/01/28 11:15:53;;;;;;;0.17;0.17;;;22.10;41.70;;;;;;4799785;29;20027;-72
2021/01/28 11:18:19;;;;;;;0.70;0.03;;;22.10;41.70;;;;;;4820295;29;20039;-73
2021/01/28 11:20:44;;;;;;;0.30;0.22;;;22.10;41.60;;;;;;4789704;29;20046;-72
2021/01/28 11:23:10;;;;;;;1.23;0.15;;;22.10;41.60;;;;;;4823650;29;20023;-72
2021/01/28 11:25:35;;;;;;;0.13;0.10;;;22.20;41.70;;;;;;4806286;29;20039;-72
2021/01/28 11:28:01;;;;;;;0.15;0.15;;;22.20;41.70;;;;;;4804713;29;20164;-73
2021/01/28 11:30:28;;;;;;;0.70;0.28;;;22.20;41.70;;;;;;4806439;29;20447;-73
2021/01/28 11:33:00;;;;;;;0.20;0.20;;;22.20;41.80;;;;;;4821633;29;20030;-73
2021/01/28 11:35:33;;;;;;;0.43;0.30;;;22.10;41.80;;;;;;4804118;29;20058;-73
2021/01/28 11:37:59;;;;;;;1.60;0.20;;;22.10;41.80;;;;;;4807011;29;20018;-73
2021/01/28 11:40:25;;;;;;;0.30;0.20;;;22.10;41.70;;;;;;4805685;29;20035;-72
2021/01/28 11:42:51;;;;;;;0.55;0.32;;;22.10;41.90;;;;;;4789583;29;20119;-73
2021/01/28 11:45:18;;;;;;;0.95;0.28;;;22.10;42.20;;;;;;4803839;29;20491;-76
2021/01/28 11:47:44;;;;;;;1.45;0.17;;;22.10;42.10;;;;;;4790302;29;20030;-75
2021/01/28 11:50:10;;;;;;;0.55;0.20;;;22.10;42.20;;;;;;4820875;29;20043;-76
2021/01/28 11:52:36;;;;;;;0.20;0.20;;;22.10;42.20;;;;;;4791191;29;20499;-76
2021/01/28 11:55:03;;;;;;;0.03;0.03;;;22.10;42.10;;;;;;4788484;29;20048;-75
2021/01/28 11:57:28;;;;;;;0.20;0.10;;;22.10;42.10;;;;;;4801398;29;20039;-76
2021/01/28 11:59:54;;;;;;;0.10;0.10;;;22.10;42.20;;;;;;4820626;29;20042;-76
2021/01/28 12:02:19;;;;;;;0.35;0.25;;;22.10;42.20;;;;;;4805820;29;20034;-76
2021/01/28 12:04:45;;;;;;;0.05;0.05;;;22.10;42.10;;;;;;4791585;29;20514;-76
2021/01/28 12:07:11;;;;;;;1.25;0.22;;;22.10;42.20;;;;;;4823351;29;20069;-76
2021/01/28 12:09:36;;;;;;;0.10;0.10;;;22.10;42.20;;;;;;4819283;29;20033;-76
2021/01/28 12:12:08;;;;;;;1.08;0.30;;;22.10;42.20;;;;;;4808342;29;20462;-76
2021/01/28 12:14:33;;;;;;;0.40;0.10;;;22.10;42.20;;;;;;4808467;29;20080;-76
2021/01/28 12:16:59;;;;;;;0.90;0.10;;;22.10;42.10;;;;;;4824967;29;20058;-75
2021/01/28 12:19:25;;;;;;;0.03;0.03;;;22.10;42.10;;;;;;4823791;29;20518;-75
2021/01/28 12:21:50;;;;;;;0.10;0.10;;;22.10;42.80;;;;;;4807930;29;20054;-75
2021/01/28 12:24:16;;;;;;;0.98;0.13;;;22.10;42.10;;;;;;4822585;29;20090;-75
2021/01/28 12:26:41;;;;;;;0.10;0.10;;;22.10;42.70;;;;;;4830030;29;20038;-73
2021/01/28 12:29:07;;;;;;;0.00;0.00;;;22.10;42.10;;;;;;4824301;29;20038;-73
2021/01/28 12:31:33;;;;;;;1.60;0.20;;;22.10;42.20;;;;;;4792731;29;20038;-73
2021/01/28 12:33:58;;;;;;;0.88;0.20;;;22.10;42.20;;;;;;4824652;29;20110;-73
2021/01/28 12:36:24;;;;;;;0.10;0.10;;;22.10;42.30;;;;;;4824361;29;20038;-73
2021/01/28 12:38:49;;;;;;;0.10;0.10;;;22.10;42.40;;;;;;4807530;29;20031;-73
2021/01/28 12:41:15;;;;;;;0.30;0.22;;;22.00;42.40;;;;;;4823482;29;20035;-73
2021/01/28 12:43:41;;;;;;;0.30;0.15;;;22.10;42.50;;;;;;4823652;29;20495;-73
2021/01/28 12:46:06;;;;;;;0.45;0.30;;;22.10;42.50;;;;;;4823297;29;20049;-74
2021/01/28 12:48:32;;;;;;;0.28;0.20;;;22.10;42.50;;;;;;4794185;29;20033;-73
2021/01/28 12:50:57;;;;;;;0.63;0.20;;;22.10;42.50;;;;;;4792542;29;20042;-73
2021/01/28 12:53:23;;;;;;;0.93;0.30;;;22.10;42.40;;;;;;4825181;29;20079;-73
2021/01/28 12:56:07;;;;;;;0.20;0.20;;;22.10;42.30;;;;;;4823062;29;20034;-73
2021/01/28 12:58:32;;;;;;;1.40;0.30;;;22.20;42.20;;;;;;4793611;29;20041;-73
2021/01/28 13:00:58;;;;;;;0.63;0.10;;;22.20;42.30;;;;;;4807214;29;20050;-73
2021/01/28 13:03:24;;;;;;;0.20;0.17;;;22.20;42.30;;;;;;4823318;29;20026;-73
2021/01/28 13:05:49;;;;;;;0.10;0.10;;;22.20;42.30;;;;;;4825131;29;20039;-73
2021/01/28 13:08:15;;;;;;;0.20;0.13;;;22.20;42.40;;;;;;4815904;29;20078;-73